Terminal Aerodrome Forecast
Issued by NWS Shreveport, LA

Home | Current Version | Previous Version | Text Only | Print | Product List | Glossary On
Versions: 1 2 3 4 5 6 7 8 9 10 11 12 13 14 15 16 17 18 19
442
FTUS44 KSHV 280520
TAFMLU
TAF
KMLU 280520Z 2806/2906 15008KT P6SM OVC150
      TEMPO 2806/2807 12015G25KT
     FM280800 17006KT P6SM SCT020 OVC150
      TEMPO 2810/2814 3SM BR OVC015
     FM281400 18008KT P6SM SCT030
     FM281800 20010KT P6SM VCTS BKN040CB
     FM282300 17005KT P6SM SCT050=

USA.gov is the U.S. government's official web portal to all federal, state and local government web resources and services.